Time;durP1;ratioP1;P1;durP2;ratioP2;P2;SDS_P1;SDS_P2;PMS_P1;PMS_P2;Temp;Humidity;BMP_temperature;BMP_pressure;BME280_temperature;BME280_humidity;BME280_pressure;Samples;Min_cycle;Max_cycle;Signal;HPM_P1;HPM_P2
2023/06/23 00:00:00;;;;;;;6.72;6.10;;;;;;;;;;626584;23;1180;-79
2023/06/23 00:00:43;;;;;;;8.05;6.70;;;;;;;;;;616962;23;1432;-77
2023/06/23 00:01:12;;;;;;;;;;;;;;;;;;;;;
2023/06/23 00:01:45;;;;;;;7.93;6.50;;;;;;;;;;627767;23;765;-78
2023/06/23 00:02:16;;;;;;;6.93;6.07;;;;;;;;;;627234;23;1366;-78
2023/06/23 00:02:47;;;;;;;7.18;6.43;;;;;;;;;;629985;23;1141;-77
2023/06/23 00:03:38;;;;;;;6.95;6.25;;;;;;;;;;630150;23;1275;-77
2023/06/23 00:04:52;;;;;;;7.03;6.32;;;;;;;;;;626120;23;767;-77
2023/06/23 00:05:19;;;;;;;6.85;6.15;;;;;;;;;;623010;23;1386;-77
2023/06/23 00:05:44;;;;;;;7.25;6.40;;;;;;;;;;620700;23;1365;-77
2023/06/23 00:06:06;;;;;;;7.93;6.60;;;;;;;;;;620950;23;1390;-77
2023/06/23 00:06:22;;;;;;;7.28;6.35;;;;;;;;;;620071;23;1395;-77
2023/06/23 00:06:38;;;;;;;6.87;6.23;;;;;;;;;;620959;23;1271;-77
2023/06/23 00:06:59;;;;;;;7.10;6.30;;;;;;;;;;620036;23;1474;-79
2023/06/23 00:07:19;;;;;;;7.18;6.40;;;;;;;;;;619931;23;1353;-77
2023/06/23 00:07:59;;;;;;;8.20;6.70;;;;;;;;;;617130;23;1550;-78
2023/06/23 00:08:23;;;;;;;7.60;6.50;;;;;;;;;;615531;23;1464;-77
2023/06/23 00:08:47;;;;;;;7.63;6.78;;;;;;;;;;614707;23;1453;-76
2023/06/23 00:09:20;;;;;;;7.72;6.90;;;;;;;;;;615005;23;1655;-77
2023/06/23 00:09:37;;;;;;;8.00;6.97;;;;;;;;;;618729;23;1414;-77
2023/06/23 00:10:05;;;;;;;7.85;7.05;;;;;;;;;;615116;23;1167;-77
2023/06/23 00:10:24;;;;;;;7.60;6.90;;;;;;;;;;618055;23;896;-77
2023/06/23 00:10:57;;;;;;;7.70;7.00;;;;;;;;;;621853;23;1388;-77
2023/06/23 00:11:13;;;;;;;9.00;7.43;;;;;;;;;;618066;23;1532;-77
2023/06/23 00:11:29;;;;;;;8.40;6.85;;;;;;;;;;619714;23;1463;-78
2023/06/23 00:11:57;;;;;;;7.93;7.13;;;;;;;;;;622596;23;1461;-77
2023/06/23 00:12:28;;;;;;;7.83;7.00;;;;;;;;;;623771;23;985;-77
2023/06/23 00:12:45;;;;;;;7.88;7.07;;;;;;;;;;620504;23;1343;-78
2023/06/23 00:13:10;;;;;;;8.05;7.25;;;;;;;;;;618510;23;1253;-77
2023/06/23 00:13:47;;;;;;;7.95;7.15;;;;;;;;;;621519;23;1586;-77
2023/06/23 00:14:15;;;;;;;8.57;7.45;;;;;;;;;;619911;23;1412;-77
2023/06/23 00:14:31;;;;;;;8.70;7.47;;;;;;;;;;617483;23;1293;-76
2023/06/23 00:15:04;;;;;;;9.52;7.80;;;;;;;;;;617519;23;1525;-77
2023/06/23 00:15:23;;;;;;;8.18;7.38;;;;;;;;;;616905;23;1507;-79
2023/06/23 00:15:57;;;;;;;8.43;7.60;;;;;;;;;;617266;23;1394;-77
2023/06/23 00:16:36;;;;;;;8.20;7.40;;;;;;;;;;621393;23;1252;-77
2023/06/23 00:17:04;;;;;;;8.43;7.60;;;;;;;;;;624028;23;1469;-77
2023/06/23 00:17:23;;;;;;;7.80;7.00;;;;;;;;;;621000;23;1363;-78
2023/06/23 00:18:01;;;;;;;8.20;7.38;;;;;;;;;;618148;23;1233;-77
2023/06/23 00:18:32;;;;;;;8.68;7.85;;;;;;;;;;614714;23;1518;-77
2023/06/23 00:18:51;;;;;;;8.45;7.63;;;;;;;;;;614778;23;1428;-77
2023/06/23 00:19:16;;;;;;;9.13;7.70;;;;;;;;;;615353;23;1316;-76
2023/06/23 00:19:44;;;;;;;9.45;7.55;;;;;;;;;;619093;23;1387;-77
2023/06/23 00:20:08;;;;;;;8.18;7.35;;;;;;;;;;619536;23;1450;-78
2023/06/23 00:20:47;;;;;;;8.95;7.50;;;;;;;;;;619397;23;1505;-77
2023/06/23 00:21:10;;;;;;;9.45;7.90;;;;;;;;;;619397;23;1257;-77
2023/06/23 00:21:34;;;;;;;9.23;7.50;;;;;;;;;;619092;23;1412;-77
2023/06/23 00:21:53;;;;;;;8.73;7.85;;;;;;;;;;618969;23;1150;-77
2023/06/23 00:22:31;;;;;;;8.13;7.32;;;;;;;;;;619347;23;1408;-78
2023/06/23 00:22:54;;;;;;;8.82;7.50;;;;;;;;;;622119;23;1185;-77
2023/06/23 00:23:19;;;;;;;8.95;7.72;;;;;;;;;;622412;23;1300;-78
2023/06/23 00:23:39;;;;;;;8.70;7.80;;;;;;;;;;622521;23;1198;-78
2023/06/23 00:24:14;;;;;;;8.63;7.60;;;;;;;;;;621946;23;1450;-79
2023/06/23 00:24:32;;;;;;;8.30;7.43;;;;;;;;;;622550;23;1552;-77
2023/06/23 00:25:02;;;;;;;8.65;7.78;;;;;;;;;;621894;23;1385;-79
2023/06/23 00:25:27;;;;;;;8.65;7.85;;;;;;;;;;625532;23;1374;-78
2023/06/23 00:26:00;;;;;;;8.57;7.72;;;;;;;;;;619219;23;1516;-78
2023/06/23 00:26:23;;;;;;;8.45;7.65;;;;;;;;;;622230;23;1341;-77
2023/06/23 00:27:08;;;;;;;8.40;7.50;;;;;;;;;;619437;23;1233;-77
2023/06/23 00:27:44;;;;;;;8.95;8.07;;;;;;;;;;620470;23;1485;-78
2023/06/23 00:28:30;;;;;;;8.73;7.82;;;;;;;;;;619667;23;1338;-77
2023/06/23 00:28:55;;;;;;;9.18;8.10;;;;;;;;;;613240;23;1370;-77
2023/06/23 00:29:17;;;;;;;8.48;7.57;;;;;;;;;;621188;23;1421;-77
2023/06/23 00:29:42;;;;;;;9.40;7.90;;;;;;;;;;621759;23;1409;-78
2023/06/23 00:30:16;;;;;;;9.07;8.13;;;;;;;;;;624694;23;1430;-78
2023/06/23 00:30:50;;;;;;;9.20;8.30;;;;;;;;;;625495;23;1569;-77
2023/06/23 00:31:21;;;;;;;8.82;8.02;;;;;;;;;;626831;23;1429;-78
2023/06/23 00:31:44;;;;;;;8.80;8.00;;;;;;;;;;622525;23;1405;-77
2023/06/23 00:32:20;;;;;;;;;;;;;;;;;;;;;
2023/06/23 00:32:43;;;;;;;8.75;7.93;;;;;;;;;;623446;23;1150;-76
2023/06/23 00:33:05;;;;;;;9.35;7.90;;;;;;;;;;624788;23;1385;-77
2023/06/23 00:33:33;;;;;;;9.07;7.82;;;;;;;;;;623631;23;1642;-77
2023/06/23 00:33:54;;;;;;;8.15;7.35;;;;;;;;;;622547;23;1100;-77
2023/06/23 00:34:33;;;;;;;8.70;7.80;;;;;;;;;;622730;23;1295;-77
2023/06/23 00:36:13;;;;;;;8.85;7.95;;;;;;;;;;620476;23;1246;-77
2023/06/23 00:37:10;;;;;;;8.70;7.80;;;;;;;;;;617148;23;1295;-78
2023/06/23 00:37:32;;;;;;;9.13;8.10;;;;;;;;;;623497;23;1377;-78
2023/06/23 00:37:53;;;;;;;9.10;8.20;;;;;;;;;;626675;23;1331;-77
2023/06/23 00:38:13;;;;;;;8.95;8.07;;;;;;;;;;626894;23;1517;-77
2023/06/23 00:38:33;;;;;;;8.60;7.80;;;;;;;;;;623468;23;1232;-77
2023/06/23 00:38:57;;;;;;;9.07;8.20;;;;;;;;;;623818;23;1537;-78
2023/06/23 00:39:24;;;;;;;9.52;8.27;;;;;;;;;;623729;23;1589;-78
2023/06/23 00:39:43;;;;;;;11.10;8.18;;;;;;;;;;620291;23;911;-77
2023/06/23 00:40:10;;;;;;;8.90;8.00;;;;;;;;;;621753;23;1343;-79
2023/06/23 00:40:48;;;;;;;9.00;8.10;;;;;;;;;;620632;23;1467;-77
2023/06/23 00:41:28;;;;;;;10.10;8.90;;;;;;;;;;618523;23;1341;-77
2023/06/23 00:41:44;;;;;;;9.73;8.32;;;;;;;;;;620634;23;915;-76
2023/06/23 00:42:07;;;;;;;9.65;8.65;;;;;;;;;;618522;23;1479;-77
2023/06/23 00:42:52;;;;;;;9.55;8.55;;;;;;;;;;615439;23;1309;-78
2023/06/23 00:43:08;;;;;;;9.45;8.55;;;;;;;;;;624729;23;891;-76
2023/06/23 00:43:59;;;;;;;9.40;8.50;;;;;;;;;;624686;23;879;-77
2023/06/23 00:44:21;;;;;;;9.50;8.60;;;;;;;;;;628233;23;1471;-77
2023/06/23 00:44:45;;;;;;;9.60;8.65;;;;;;;;;;630416;23;1247;-78
2023/06/23 00:45:01;;;;;;;9.30;8.40;;;;;;;;;;630947;23;1580;-76
2023/06/23 00:45:26;;;;;;;9.30;8.27;;;;;;;;;;631043;23;847;-78
2023/06/23 00:45:51;;;;;;;9.82;8.30;;;;;;;;;;630426;23;1239;-77
2023/06/23 00:46:18;;;;;;;9.73;8.63;;;;;;;;;;628997;23;847;-77
2023/06/23 00:46:35;;;;;;;9.80;8.88;;;;;;;;;;632115;23;1428;-77
2023/06/23 00:46:54;;;;;;;9.55;8.63;;;;;;;;;;633360;23;1216;-77
2023/06/23 00:47:16;;;;;;;9.07;8.18;;;;;;;;;;630590;23;1404;-77
2023/06/23 00:47:35;;;;;;;9.73;8.73;;;;;;;;;;629947;23;1382;-78
2023/06/23 00:47:54;;;;;;;10.27;8.82;;;;;;;;;;630587;23;1968;-78
2023/06/23 00:48:22;;;;;;;9.90;8.90;;;;;;;;;;626943;23;1552;-78
2023/06/23 00:48:50;;;;;;;9.77;8.80;;;;;;;;;;625287;23;1198;-78
2023/06/23 00:49:25;;;;;;;9.70;8.70;;;;;;;;;;626544;23;1347;-78
2023/06/23 00:50:19;;;;;;;10.50;8.93;;;;;;;;;;624323;23;1276;-77
2023/06/23 00:50:45;;;;;;;10.57;9.55;;;;;;;;;;628796;23;866;-78
2023/06/23 00:51:39;;;;;;;10.25;9.25;;;;;;;;;;630034;23;1340;-78
2023/06/23 00:52:10;;;;;;;11.50;9.73;;;;;;;;;;633604;23;1181;-78
2023/06/23 00:52:33;;;;;;;10.13;9.07;;;;;;;;;;631586;23;1361;-77
2023/06/23 00:53:10;;;;;;;10.15;9.13;;;;;;;;;;628785;23;1441;-79
2023/06/23 00:53:38;;;;;;;11.10;10.00;;;;;;;;;;628791;23;1434;-78
2023/06/23 00:54:13;;;;;;;10.82;9.68;;;;;;;;;;630667;23;1175;-77
2023/06/23 00:54:35;;;;;;;10.13;9.13;;;;;;;;;;630445;23;1524;-77
2023/06/23 00:54:57;;;;;;;10.68;9.63;;;;;;;;;;630177;23;1333;-77
2023/06/23 00:55:17;;;;;;;11.48;10.20;;;;;;;;;;628034;23;1320;-78
2023/06/23 00:55:40;;;;;;;11.98;9.90;;;;;;;;;;627973;23;1419;-77
2023/06/23 00:56:18;;;;;;;10.40;9.40;;;;;;;;;;624892;23;1193;-77
2023/06/23 00:56:41;;;;;;;10.63;9.50;;;;;;;;;;626607;23;1458;-77
2023/06/23 00:57:04;;;;;;;10.82;9.73;;;;;;;;;;623682;23;1586;-77
2023/06/23 00:57:21;;;;;;;11.18;9.38;;;;;;;;;;627660;23;1207;-77
2023/06/23 00:57:52;;;;;;;11.07;9.30;;;;;;;;;;627321;23;1499;-77
2023/06/23 00:58:11;;;;;;;10.15;9.20;;;;;;;;;;628634;23;1398;-77
2023/06/23 00:58:43;;;;;;;10.25;9.35;;;;;;;;;;629472;23;1279;-79
2023/06/23 00:59:09;;;;;;;10.75;9.75;;;;;;;;;;625866;23;1383;-78
2023/06/23 00:59:41;;;;;;;10.85;9.77;;;;;;;;;;627150;23;1389;-78
2023/06/23 01:00:11;;;;;;;11.35;10.15;;;;;;;;;;627952;23;1414;-78
2023/06/23 01:00:39;;;;;;;10.90;9.85;;;;;;;;;;630729;23;1438;-77
2023/06/23 01:00:58;;;;;;;10.82;9.80;;;;;;;;;;627660;23;1378;-78
2023/06/23 01:01:20;;;;;;;10.73;9.73;;;;;;;;;;628508;23;1380;-78
2023/06/23 01:01:42;;;;;;;10.90;9.80;;;;;;;;;;627899;23;1312;-77
2023/06/23 01:02:03;;;;;;;10.70;9.60;;;;;;;;;;624185;23;1436;-77
2023/06/23 01:02:27;;;;;;;11.13;10.00;;;;;;;;;;624201;23;980;-77
2023/06/23 01:02:59;;;;;;;12.48;9.82;;;;;;;;;;624219;23;1295;-78
2023/06/23 01:03:27;;;;;;;10.77;9.68;;;;;;;;;;626424;23;876;-77
2023/06/23 01:03:46;;;;;;;10.52;9.52;;;;;;;;;;629724;23;1449;-77
2023/06/23 01:04:11;;;;;;;10.88;9.57;;;;;;;;;;630096;23;1381;-77
2023/06/23 01:04:35;;;;;;;10.55;9.40;;;;;;;;;;629462;23;1025;-78
2023/06/23 01:05:04;;;;;;;10.40;9.40;;;;;;;;;;626170;23;1492;-78
2023/06/23 01:05:30;;;;;;;10.65;9.55;;;;;;;;;;621047;23;1491;-78
2023/06/23 01:05:51;;;;;;;11.23;10.13;;;;;;;;;;626629;23;1349;-78
2023/06/23 01:06:20;;;;;;;11.55;9.73;;;;;;;;;;626331;23;1388;-77
2023/06/23 01:07:16;;;;;;;11.70;9.50;;;;;;;;;;623736;23;1291;-76
2023/06/23 01:08:08;;;;;;;11.20;9.80;;;;;;;;;;629004;23;965;-76
2023/06/23 01:08:25;;;;;;;10.77;9.68;;;;;;;;;;626326;23;1309;-77
2023/06/23 01:09:15;;;;;;;10.77;9.60;;;;;;;;;;626345;23;1477;-76
2023/06/23 01:10:00;;;;;;;10.18;9.18;;;;;;;;;;623974;23;1525;-76
2023/06/23 01:10:27;;;;;;;10.10;9.18;;;;;;;;;;623349;23;1490;-77
2023/06/23 01:10:51;;;;;;;10.30;9.30;;;;;;;;;;625379;23;1323;-77
2023/06/23 01:11:43;;;;;;;10.52;9.43;;;;;;;;;;625384;23;1511;-78
2023/06/23 01:12:41;;;;;;;11.05;9.85;;;;;;;;;;626212;23;1370;-77
2023/06/23 01:13:51;;;;;;;11.00;9.90;;;;;;;;;;622760;23;2148;-77
2023/06/23 01:14:18;;;;;;;10.63;9.63;;;;;;;;;;627197;23;1379;-76
2023/06/23 01:14:43;;;;;;;10.60;9.57;;;;;;;;;;623626;23;1217;-76
2023/06/23 01:15:05;;;;;;;10.95;9.40;;;;;;;;;;623467;23;1259;-77
2023/06/23 01:15:34;;;;;;;10.88;9.77;;;;;;;;;;623323;23;1338;-77
2023/06/23 01:15:56;;;;;;;10.70;9.70;;;;;;;;;;624015;23;1408;-77
2023/06/23 01:16:34;;;;;;;10.98;9.88;;;;;;;;;;624167;23;1213;-76
2023/06/23 01:17:06;;;;;;;11.52;10.43;;;;;;;;;;624431;23;1322;-77
2023/06/23 01:17:31;;;;;;;11.77;10.68;;;;;;;;;;620890;23;1162;-76
2023/06/23 01:18:15;;;;;;;12.30;11.10;;;;;;;;;;620439;23;1438;-77
2023/06/23 01:18:58;;;;;;;12.18;10.98;;;;;;;;;;624364;23;1339;-76
2023/06/23 01:19:54;;;;;;;12.18;10.88;;;;;;;;;;628735;23;847;-78
2023/06/23 01:20:33;;;;;;;12.52;10.98;;;;;;;;;;626802;23;1432;-76
2023/06/23 01:20:50;;;;;;;12.02;10.80;;;;;;;;;;629927;23;1146;-76
2023/06/23 01:21:15;;;;;;;11.88;10.70;;;;;;;;;;630693;23;894;-77
2023/06/23 01:21:53;;;;;;;11.98;10.77;;;;;;;;;;627734;23;1490;-77
2023/06/23 01:23:14;;;;;;;11.10;10.00;;;;;;;;;;622107;23;1039;-77
2023/06/23 01:24:27;;;;;;;11.25;10.15;;;;;;;;;;630500;23;1434;-78
2023/06/23 01:25:11;;;;;;;11.80;10.70;;;;;;;;;;628565;23;1201;-77
2023/06/23 01:25:53;;;;;;;12.00;10.80;;;;;;;;;;634753;23;902;-76
2023/06/23 01:26:31;;;;;;;11.30;10.20;;;;;;;;;;634444;23;875;-75
2023/06/23 01:26:56;;;;;;;11.38;10.27;;;;;;;;;;634698;23;1346;-75
2023/06/23 01:27:29;;;;;;;11.45;10.30;;;;;;;;;;634972;23;1002;-74
2023/06/23 01:28:19;;;;;;;11.25;10.15;;;;;;;;;;637968;23;843;-75
2023/06/23 01:28:56;;;;;;;11.55;10.05;;;;;;;;;;633666;23;1328;-75
2023/06/23 01:29:17;;;;;;;12.63;10.10;;;;;;;;;;634465;23;1404;-75
2023/06/23 01:29:36;;;;;;;11.02;9.70;;;;;;;;;;628098;23;890;-77
2023/06/23 01:29:53;;;;;;;10.60;9.60;;;;;;;;;;625612;23;1497;-75
2023/06/23 01:30:15;;;;;;;10.48;9.48;;;;;;;;;;622942;23;1351;-77
2023/06/23 01:30:32;;;;;;;10.70;9.60;;;;;;;;;;625400;23;1590;-77
2023/06/23 01:30:54;;;;;;;11.00;10.00;;;;;;;;;;625520;23;1367;-77
2023/06/23 01:31:15;;;;;;;12.43;10.00;;;;;;;;;;623254;23;1482;-76
2023/06/23 01:31:45;;;;;;;13.98;10.02;;;;;;;;;;622578;23;1371;-76
2023/06/23 01:32:12;;;;;;;11.25;10.15;;;;;;;;;;624748;23;1548;-76
2023/06/23 01:32:36;;;;;;;11.23;10.07;;;;;;;;;;620869;23;1295;-76
2023/06/23 01:33:02;;;;;;;11.23;10.13;;;;;;;;;;623013;23;1069;-79
2023/06/23 01:33:21;;;;;;;11.43;10.32;;;;;;;;;;622976;23;1469;-78
2023/06/23 01:33:48;;;;;;;11.30;10.10;;;;;;;;;;626185;23;842;-76
2023/06/23 01:34:08;;;;;;;11.15;9.80;;;;;;;;;;628511;23;870;-77
2023/06/23 01:34:31;;;;;;;10.80;9.77;;;;;;;;;;626517;23;1373;-77
2023/06/23 01:34:58;;;;;;;10.57;9.48;;;;;;;;;;626195;23;1451;-77
2023/06/23 01:35:21;;;;;;;11.40;10.20;;;;;;;;;;622634;23;1451;-77
2023/06/23 01:35:43;;;;;;;11.50;10.40;;;;;;;;;;622770;23;1356;-77
2023/06/23 01:36:08;;;;;;;11.50;10.30;;;;;;;;;;620347;23;1451;-77
2023/06/23 01:36:38;;;;;;;11.88;10.13;;;;;;;;;;622468;23;1341;-77
2023/06/23 01:37:03;;;;;;;11.05;9.93;;;;;;;;;;626098;23;969;-76
2023/06/23 01:37:26;;;;;;;11.18;9.98;;;;;;;;;;626297;23;1354;-77
2023/06/23 01:37:47;;;;;;;11.20;10.05;;;;;;;;;;625820;23;1031;-77
2023/06/23 01:38:10;;;;;;;11.15;10.05;;;;;;;;;;622990;23;1359;-77
2023/06/23 01:38:32;;;;;;;11.00;10.00;;;;;;;;;;622900;23;1635;-77
2023/06/23 01:38:52;;;;;;;10.48;9.52;;;;;;;;;;622063;23;1597;-76
2023/06/23 01:39:12;;;;;;;10.80;9.80;;;;;;;;;;620919;23;1385;-78
2023/06/23 01:39:32;;;;;;;11.00;9.90;;;;;;;;;;619848;23;1366;-77
2023/06/23 01:39:53;;;;;;;11.07;9.98;;;;;;;;;;616967;23;1558;-78
2023/06/23 01:40:15;;;;;;;11.02;9.93;;;;;;;;;;620308;23;1354;-78
2023/06/23 01:40:35;;;;;;;10.95;9.90;;;;;;;;;;620468;23;1722;-78
2023/06/23 01:40:54;;;;;;;11.20;10.10;;;;;;;;;;617082;23;1510;-77
2023/06/23 01:41:25;;;;;;;10.82;9.73;;;;;;;;;;620016;23;875;-77
2023/06/23 01:41:47;;;;;;;10.93;9.90;;;;;;;;;;626157;23;1308;-77
2023/06/23 01:42:07;;;;;;;11.20;10.20;;;;;;;;;;627816;23;1342;-77
2023/06/23 01:42:30;;;;;;;11.05;10.05;;;;;;;;;;627078;23;1012;-76
2023/06/23 01:42:54;;;;;;;11.45;10.20;;;;;;;;;;628145;23;1350;-77
2023/06/23 01:43:14;;;;;;;10.73;9.63;;;;;;;;;;626111;23;1500;-76
2023/06/23 01:43:33;;;;;;;10.70;9.70;;;;;;;;;;622039;23;1455;-76
2023/06/23 01:43:55;;;;;;;10.75;9.75;;;;;;;;;;619639;23;1541;-76
2023/06/23 01:44:16;;;;;;;11.32;10.23;;;;;;;;;;619870;23;1332;-77
2023/06/23 01:44:34;;;;;;;10.90;9.80;;;;;;;;;;619889;23;1452;-76
2023/06/23 01:44:55;;;;;;;10.65;9.65;;;;;;;;;;617497;23;1479;-77
2023/06/23 01:45:13;;;;;;;11.10;10.00;;;;;;;;;;629278;23;1396;-76
2023/06/23 01:45:29;;;;;;;11.25;10.05;;;;;;;;;;629166;23;915;-76
2023/06/23 01:45:45;;;;;;;10.90;9.80;;;;;;;;;;625255;23;1184;-76
2023/06/23 01:46:05;;;;;;;10.77;9.73;;;;;;;;;;625613;23;824;-77
2023/06/23 01:46:25;;;;;;;10.48;9.48;;;;;;;;;;629326;23;1375;-77
2023/06/23 01:46:44;;;;;;;10.98;9.68;;;;;;;;;;632045;23;890;-76
2023/06/23 01:47:02;;;;;;;10.90;9.73;;;;;;;;;;631907;23;1238;-76
2023/06/23 01:47:21;;;;;;;10.13;9.18;;;;;;;;;;632486;23;1260;-76
2023/06/23 01:47:39;;;;;;;10.18;9.23;;;;;;;;;;635767;23;828;-77
2023/06/23 01:47:58;;;;;;;10.98;9.88;;;;;;;;;;633145;23;1912;-77
2023/06/23 01:48:15;;;;;;;11.10;10.00;;;;;;;;;;632801;23;978;-77
2023/06/23 01:48:36;;;;;;;10.57;9.55;;;;;;;;;;634087;23;1250;-77
2023/06/23 01:48:58;;;;;;;10.23;9.30;;;;;;;;;;633829;23;1214;-76
2023/06/23 01:49:18;;;;;;;10.70;9.70;;;;;;;;;;625292;23;875;-77
2023/06/23 01:49:36;;;;;;;10.20;9.20;;;;;;;;;;622826;23;1367;-77
2023/06/23 01:49:58;;;;;;;9.65;8.75;;;;;;;;;;619840;23;1364;-77
2023/06/23 01:50:16;;;;;;;10.05;9.07;;;;;;;;;;620162;23;1468;-77
2023/06/23 01:50:33;;;;;;;10.35;9.43;;;;;;;;;;620153;23;860;-77
2023/06/23 01:50:50;;;;;;;10.57;9.57;;;;;;;;;;622182;23;844;-77
2023/06/23 01:51:08;;;;;;;10.45;9.45;;;;;;;;;;620434;23;1426;-77
2023/06/23 01:51:27;;;;;;;10.85;9.57;;;;;;;;;;620862;23;1378;-77
2023/06/23 01:51:45;;;;;;;10.80;9.48;;;;;;;;;;623321;23;847;-77
2023/06/23 01:52:04;;;;;;;12.07;10.07;;;;;;;;;;619996;23;1412;-77
2023/06/23 01:52:23;;;;;;;11.60;9.77;;;;;;;;;;622460;23;1356;-78
2023/06/23 01:52:40;;;;;;;10.55;9.45;;;;;;;;;;619750;23;1549;-77
2023/06/23 01:52:58;;;;;;;10.70;9.60;;;;;;;;;;621361;23;941;-77
2023/06/23 01:53:14;;;;;;;10.55;9.48;;;;;;;;;;620786;23;1431;-78
2023/06/23 01:53:32;;;;;;;10.88;9.73;;;;;;;;;;623259;23;965;-77
2023/06/23 01:53:49;;;;;;;11.05;9.82;;;;;;;;;;620649;23;1431;-77
2023/06/23 01:54:07;;;;;;;10.80;9.75;;;;;;;;;;622728;23;1454;-78
2023/06/23 01:54:24;;;;;;;10.45;9.45;;;;;;;;;;619902;23;1582;-76
2023/06/23 01:54:41;;;;;;;10.50;9.50;;;;;;;;;;623224;23;1247;-76
2023/06/23 01:54:59;;;;;;;10.73;9.63;;;;;;;;;;622970;23;953;-77
2023/06/23 01:55:17;;;;;;;10.80;9.70;;;;;;;;;;629481;23;1437;-78
2023/06/23 01:55:34;;;;;;;10.93;9.77;;;;;;;;;;626464;23;1462;-78
2023/06/23 01:55:50;;;;;;;11.20;9.65;;;;;;;;;;625297;23;1459;-77
2023/06/23 01:56:09;;;;;;;10.82;9.73;;;;;;;;;;635016;23;915;-77
2023/06/23 01:56:25;;;;;;;10.68;9.57;;;;;;;;;;634890;23;1295;-77
2023/06/23 01:56:42;;;;;;;10.40;9.30;;;;;;;;;;634478;23;1343;-77
2023/06/23 01:57:00;;;;;;;10.65;9.57;;;;;;;;;;634714;23;1359;-78
2023/06/23 01:57:17;;;;;;;10.70;9.60;;;;;;;;;;632099;23;1493;-77
2023/06/23 01:57:35;;;;;;;11.00;9.88;;;;;;;;;;632038;23;1402;-77
2023/06/23 01:57:53;;;;;;;10.75;9.70;;;;;;;;;;631857;23;1271;-77
2023/06/23 01:58:10;;;;;;;10.30;9.32;;;;;;;;;;632047;23;895;-77
2023/06/23 01:58:28;;;;;;;10.40;9.32;;;;;;;;;;635455;23;985;-77
2023/06/23 01:58:45;;;;;;;10.23;9.23;;;;;;;;;;631848;23;1038;-77
2023/06/23 01:59:02;;;;;;;10.00;9.00;;;;;;;;;;635122;23;860;-78
2023/06/23 01:59:19;;;;;;;10.00;9.00;;;;;;;;;;634942;23;871;-77
2023/06/23 01:59:37;;;;;;;9.73;8.75;;;;;;;;;;638433;23;1384;-77
2023/06/23 01:59:53;;;;;;;10.30;9.25;;;;;;;;;;641144;23;998;-77
2023/06/23 02:00:13;;;;;;;10.85;9.75;;;;;;;;;;633691;23;1259;-76
2023/06/23 02:00:29;;;;;;;10.90;9.80;;;;;;;;;;626589;23;1346;-76
2023/06/23 02:00:45;;;;;;;11.23;9.53;;;;;;;;;;625966;23;1317;-77
2023/06/23 02:01:02;;;;;;;10.80;9.70;;;;;;;;;;626428;23;1337;-77
2023/06/23 02:01:19;;;;;;;10.88;9.77;;;;;;;;;;623537;23;1325;-77
2023/06/23 02:01:36;;;;;;;10.55;9.50;;;;;;;;;;623298;23;1288;-77
2023/06/23 02:01:57;;;;;;;10.38;9.40;;;;;;;;;;625922;23;1450;-77
2023/06/23 02:02:18;;;;;;;10.32;9.32;;;;;;;;;;626382;23;1385;-78
2023/06/23 02:02:35;;;;;;;11.00;9.90;;;;;;;;;;622978;23;914;-76
2023/06/23 02:02:53;;;;;;;10.60;9.50;;;;;;;;;;624454;23;902;-77
2023/06/23 02:03:11;;;;;;;10.80;9.70;;;;;;;;;;629384;23;1493;-77
2023/06/23 02:03:29;;;;;;;11.10;10.00;;;;;;;;;;629412;23;850;-76
2023/06/23 02:03:47;;;;;;;11.07;9.88;;;;;;;;;;629196;23;1419;-77
2023/06/23 02:04:04;;;;;;;10.45;9.27;;;;;;;;;;626324;23;1486;-77
2023/06/23 02:04:24;;;;;;;10.30;9.20;;;;;;;;;;623012;23;1246;-77
2023/06/23 02:04:41;;;;;;;10.57;9.57;;;;;;;;;;626346;23;1422;-78
2023/06/23 02:04:59;;;;;;;10.75;9.75;;;;;;;;;;622541;23;1461;-78
2023/06/23 02:05:17;;;;;;;10.57;9.48;;;;;;;;;;619798;23;1322;-78
2023/06/23 02:05:35;;;;;;;10.70;9.60;;;;;;;;;;620440;23;1528;-77
2023/06/23 02:05:53;;;;;;;10.90;9.90;;;;;;;;;;623507;23;1398;-76
2023/06/23 02:06:13;;;;;;;11.00;10.00;;;;;;;;;;623509;23;1461;-77
2023/06/23 02:06:32;;;;;;;11.00;9.93;;;;;;;;;;626226;23;1335;-77
2023/06/23 02:06:50;;;;;;;11.20;10.00;;;;;;;;;;626669;23;906;-77
2023/06/23 02:07:06;;;;;;;11.65;10.45;;;;;;;;;;622216;23;1361;-78
2023/06/23 02:07:23;;;;;;;11.25;10.05;;;;;;;;;;623166;23;1433;-77
2023/06/23 02:07:42;;;;;;;10.60;9.60;;;;;;;;;;623439;23;902;-76
2023/06/23 02:07:59;;;;;;;10.43;9.43;;;;;;;;;;627108;23;1950;-76
2023/06/23 02:08:19;;;;;;;10.63;9.60;;;;;;;;;;629687;23;854;-76
2023/06/23 02:08:36;;;;;;;11.15;10.15;;;;;;;;;;628664;23;1385;-78
2023/06/23 02:08:52;;;;;;;11.43;10.32;;;;;;;;;;630003;23;1325;-77
2023/06/23 02:09:14;;;;;;;11.88;10.60;;;;;;;;;;626768;23;1250;-77
2023/06/23 02:09:32;;;;;;;12.00;10.80;;;;;;;;;;620470;23;1414;-76
2023/06/23 02:09:51;;;;;;;12.30;11.10;;;;;;;;;;620777;23;1460;-77
2023/06/23 02:10:12;;;;;;;12.15;10.95;;;;;;;;;;620274;23;1355;-77
2023/06/23 02:10:29;;;;;;;12.63;11.35;;;;;;;;;;623414;23;1387;-76
2023/06/23 02:10:45;;;;;;;12.60;11.38;;;;;;;;;;620277;23;1358;-77
2023/06/23 02:11:02;;;;;;;12.70;11.50;;;;;;;;;;623217;23;1413;-77
2023/06/23 02:11:19;;;;;;;12.75;11.43;;;;;;;;;;626378;23;1438;-77
2023/06/23 02:11:36;;;;;;;12.60;11.30;;;;;;;;;;623835;23;1500;-77
2023/06/23 02:11:55;;;;;;;13.10;11.82;;;;;;;;;;623509;23;1280;-77
2023/06/23 02:12:12;;;;;;;13.15;11.95;;;;;;;;;;626023;23;1420;-77
2023/06/23 02:12:30;;;;;;;13.35;12.05;;;;;;;;;;626272;23;1267;-77
2023/06/23 02:12:47;;;;;;;13.43;12.02;;;;;;;;;;623463;23;1612;-78
2023/06/23 02:13:05;;;;;;;13.18;11.77;;;;;;;;;;623550;23;1287;-78
2023/06/23 02:13:25;;;;;;;13.35;11.88;;;;;;;;;;626519;23;1487;-77
2023/06/23 02:13:42;;;;;;;14.60;12.23;;;;;;;;;;623555;23;1449;-76
2023/06/23 02:14:00;;;;;;;13.25;11.90;;;;;;;;;;623669;23;1547;-78
2023/06/23 02:14:19;;;;;;;13.13;11.73;;;;;;;;;;626703;23;1387;-77
2023/06/23 02:14:37;;;;;;;13.10;11.73;;;;;;;;;;623538;23;1363;-78
2023/06/23 02:14:53;;;;;;;13.35;12.05;;;;;;;;;;623831;23;1596;-77
2023/06/23 02:15:10;;;;;;;13.68;12.30;;;;;;;;;;621114;23;1271;-78
2023/06/23 02:15:28;;;;;;;13.60;12.20;;;;;;;;;;620749;23;866;-77
2023/06/23 02:15:45;;;;;;;13.77;12.32;;;;;;;;;;620737;23;1379;-76
2023/06/23 02:16:23;;;;;;;14.00;12.50;;;;;;;;;;620332;23;1407;-77
2023/06/23 02:16:41;;;;;;;14.00;12.57;;;;;;;;;;618360;23;1583;-78
2023/06/23 02:16:57;;;;;;;13.40;12.07;;;;;;;;;;623791;23;1498;-77
2023/06/23 02:17:15;;;;;;;15.35;12.48;;;;;;;;;;626529;23;807;-76
2023/06/23 02:17:32;;;;;;;14.07;12.65;;;;;;;;;;626330;23;1282;-77
2023/06/23 02:17:49;;;;;;;14.35;13.05;;;;;;;;;;629430;23;1065;-78
2023/06/23 02:18:08;;;;;;;14.05;12.73;;;;;;;;;;630029;23;1589;-77
2023/06/23 02:18:25;;;;;;;14.35;12.85;;;;;;;;;;629290;23;918;-78
2023/06/23 02:18:42;;;;;;;15.07;13.57;;;;;;;;;;626627;23;1398;-78
2023/06/23 02:18:59;;;;;;;15.02;13.50;;;;;;;;;;623018;23;1259;-78
2023/06/23 02:19:18;;;;;;;15.27;13.68;;;;;;;;;;623816;23;1310;-77
2023/06/23 02:19:34;;;;;;;15.13;13.63;;;;;;;;;;620329;23;1419;-77
2023/06/23 02:19:52;;;;;;;14.82;13.43;;;;;;;;;;620500;23;1484;-78
2023/06/23 02:20:14;;;;;;;14.50;13.10;;;;;;;;;;620620;23;1349;-77
2023/06/23 02:20:31;;;;;;;14.60;13.20;;;;;;;;;;620364;23;1475;-77
2023/06/23 02:20:50;;;;;;;14.70;13.27;;;;;;;;;;624609;23;1498;-77
2023/06/23 02:21:07;;;;;;;14.30;12.90;;;;;;;;;;620843;23;1386;-78
2023/06/23 02:21:25;;;;;;;14.02;12.65;;;;;;;;;;624112;23;1327;-77
2023/06/23 02:21:43;;;;;;;14.77;13.38;;;;;;;;;;624304;23;1097;-77
2023/06/23 02:22:00;;;;;;;14.90;13.50;;;;;;;;;;622314;23;1423;-78
2023/06/23 02:22:21;;;;;;;14.93;13.43;;;;;;;;;;624123;23;1435;-77
2023/06/23 02:22:38;;;;;;;15.18;13.68;;;;;;;;;;621292;23;871;-77
2023/06/23 02:22:56;;;;;;;15.23;13.73;;;;;;;;;;620678;23;1318;-77
2023/06/23 02:23:13;;;;;;;15.35;13.75;;;;;;;;;;621270;23;1568;-77
2023/06/23 02:23:30;;;;;;;14.95;13.45;;;;;;;;;;623585;23;1321;-77
2023/06/23 02:23:46;;;;;;;15.57;14.00;;;;;;;;;;623932;23;1407;-77
2023/06/23 02:24:06;;;;;;;15.75;14.25;;;;;;;;;;623962;23;1219;-77
2023/06/23 02:24:24;;;;;;;15.52;14.02;;;;;;;;;;623606;23;1251;-76
2023/06/23 02:24:40;;;;;;;15.38;13.88;;;;;;;;;;623889;23;1602;-77
2023/06/23 02:24:58;;;;;;;15.77;14.18;;;;;;;;;;623832;23;1350;-76
2023/06/23 02:25:15;;;;;;;15.52;13.90;;;;;;;;;;619834;23;1405;-77
2023/06/23 02:25:33;;;;;;;15.45;13.85;;;;;;;;;;623460;23;1439;-77
2023/06/23 02:25:51;;;;;;;15.02;13.63;;;;;;;;;;623358;23;1273;-78
2023/06/23 02:26:09;;;;;;;14.73;13.40;;;;;;;;;;623788;23;1340;-77
2023/06/23 02:26:27;;;;;;;14.52;13.18;;;;;;;;;;620637;23;1353;-76
2023/06/23 02:26:47;;;;;;;14.52;13.20;;;;;;;;;;620669;23;1300;-76
2023/06/23 02:27:03;;;;;;;14.98;13.48;;;;;;;;;;621017;23;1488;-75
2023/06/23 02:27:21;;;;;;;14.73;13.30;;;;;;;;;;617737;23;1307;-76
2023/06/23 02:27:38;;;;;;;15.07;13.57;;;;;;;;;;623455;23;1549;-77
2023/06/23 02:27:54;;;;;;;15.32;13.73;;;;;;;;;;623796;23;1913;-78
2023/06/23 02:28:12;;;;;;;15.20;13.60;;;;;;;;;;626152;23;886;-77
2023/06/23 02:28:28;;;;;;;15.55;14.05;;;;;;;;;;626721;23;1386;-78
2023/06/23 02:28:49;;;;;;;15.52;14.00;;;;;;;;;;629723;23;1375;-77
2023/06/23 02:29:06;;;;;;;15.02;13.57;;;;;;;;;;626941;23;1027;-76
2023/06/23 02:29:43;;;;;;;15.00;13.60;;;;;;;;;;629810;23;918;-78